Time;durP1;ratioP1;P1;durP2;ratioP2;P2;SDS_P1;SDS_P2;PMS_P1;PMS_P2;Temp;Humidity;BMP_temperature;BMP_pressure;BME280_temperature;BME280_humidity;BME280_pressure;Samples;Min_cycle;Max_cycle;Signal;HPM_P1;HPM_P2
2022/02/27 00:00:13;0.00;0.00;0.62;0.00;0.00;0.62;3.10;2.53;;;23.90;25.30;;;;;;2264719;61;20487;-64
2022/02/27 00:02:57;0.00;0.00;0.62;0.00;0.00;0.62;2.90;2.27;;;23.90;25.30;;;;;;2265472;61;20377;-64
2022/02/27 00:05:42;0.00;0.00;0.62;0.00;0.00;0.62;3.13;2.50;;;23.90;25.40;;;;;;2265334;61;20442;-63
2022/02/27 00:08:27;0.00;0.00;0.62;0.00;0.00;0.62;2.50;2.00;;;23.90;25.30;;;;;;2264902;61;20361;-65
2022/02/27 00:11:12;0.00;0.00;0.62;0.00;0.00;0.62;4.13;3.33;;;23.90;25.30;;;;;;2265483;61;20372;-63
2022/02/27 00:13:56;0.00;0.00;0.62;0.00;0.00;0.62;3.87;2.90;;;23.90;25.20;;;;;;2265013;61;20380;-65
2022/02/27 00:16:41;0.00;0.00;0.62;0.00;0.00;0.62;3.30;3.00;;;23.80;24.90;;;;;;2265243;61;20675;-68
2022/02/27 00:19:25;0.00;0.00;0.62;0.00;0.00;0.62;4.10;3.23;;;23.80;24.80;;;;;;2265613;61;20364;-67
2022/02/27 00:22:11;0.00;0.00;0.62;0.00;0.00;0.62;4.13;2.93;;;23.80;24.70;;;;;;2264642;61;20404;-65
2022/02/27 00:24:57;0.00;0.00;0.62;0.00;0.00;0.62;4.30;2.70;;;23.80;24.70;;;;;;2265525;61;20357;-66
2022/02/27 00:27:42;0.00;0.00;0.62;0.00;0.00;0.62;3.80;3.40;;;23.80;24.80;;;;;;2265322;61;20693;-67
2022/02/27 00:30:27;0.00;0.00;0.62;0.00;0.00;0.62;3.90;2.90;;;23.80;24.80;;;;;;2264772;61;20756;-65
2022/02/27 00:33:12;0.00;0.00;0.62;0.00;0.00;0.62;4.50;3.20;;;23.80;24.80;;;;;;2265075;61;20776;-66
2022/02/27 00:35:58;0.00;0.00;0.62;0.00;0.00;0.62;3.73;3.17;;;23.80;25.40;;;;;;2264883;61;20724;-67
2022/02/27 00:38:43;0.00;0.00;0.62;0.00;0.00;0.62;4.20;3.20;;;23.80;24.90;;;;;;2265324;61;20385;-67
2022/02/27 00:41:30;0.00;0.00;0.62;0.00;0.00;0.62;3.33;2.60;;;23.80;24.90;;;;;;2265405;61;20365;-68
2022/02/27 00:44:15;0.00;0.00;0.62;0.00;0.00;0.62;3.03;2.40;;;23.80;25.50;;;;;;2264803;61;20389;-66
2022/02/27 00:47:01;0.00;0.00;0.62;0.00;0.00;0.62;5.33;3.20;;;23.80;24.90;;;;;;2264858;61;20756;-64
2022/02/27 00:49:45;0.00;0.00;0.62;0.00;0.00;0.62;3.60;2.90;;;23.70;24.90;;;;;;2264755;61;20384;-65
2022/02/27 00:52:30;0.00;0.00;0.62;0.00;0.00;0.62;2.90;2.60;;;23.70;24.90;;;;;;2264404;61;20360;-62
2022/02/27 00:55:14;0.00;0.00;0.62;0.00;0.00;0.62;3.90;2.40;;;23.70;24.90;;;;;;2265054;61;20432;-67
2022/02/27 00:58:00;0.00;0.00;0.62;0.00;0.00;0.62;3.80;2.77;;;23.70;24.90;;;;;;2264371;61;20403;-65
2022/02/27 01:00:44;0.00;0.00;0.62;0.00;0.00;0.62;3.30;2.40;;;23.70;24.90;;;;;;2264747;61;20353;-65
2022/02/27 01:03:29;0.00;0.00;0.62;0.00;0.00;0.62;3.90;2.60;;;23.70;25.00;;;;;;2265334;61;20381;-64
2022/02/27 01:06:14;0.00;0.00;0.62;0.00;0.00;0.62;2.90;2.27;;;23.70;25.00;;;;;;2264683;61;20392;-65
2022/02/27 01:09:01;0.00;0.00;0.62;0.00;0.00;0.62;3.20;2.60;;;23.70;25.00;;;;;;2265193;61;20357;-65
2022/02/27 01:11:45;0.00;0.00;0.62;0.00;0.00;0.62;3.70;2.43;;;23.70;25.00;;;;;;2265606;61;20381;-67
2022/02/27 01:14:31;0.00;0.00;0.62;0.00;0.00;0.62;2.80;2.23;;;23.70;25.00;;;;;;2265076;61;20380;-67
2022/02/27 01:17:16;0.00;0.00;0.62;0.00;0.00;0.62;2.93;2.03;;;23.70;25.10;;;;;;2266132;61;20411;-67
2022/02/27 01:20:01;0.00;0.00;0.62;0.00;0.00;0.62;4.07;2.70;;;23.70;25.00;;;;;;2265128;61;20400;-62
2022/02/27 01:22:47;0.00;0.00;0.62;0.00;0.00;0.62;3.20;2.73;;;23.60;24.80;;;;;;2265029;61;20412;-66
2022/02/27 01:25:31;0.00;0.00;0.62;0.00;0.00;0.62;3.70;2.80;;;23.60;24.70;;;;;;2265429;61;20433;-67
2022/02/27 01:28:17;0.00;0.00;0.62;0.00;0.00;0.62;3.40;2.93;;;23.60;24.60;;;;;;2265560;61;20412;-67
2022/02/27 01:31:03;0.00;0.00;0.62;0.00;0.00;0.62;3.90;2.87;;;23.60;24.50;;;;;;2265010;61;20427;-65
2022/02/27 01:33:47;0.00;0.00;0.62;0.00;0.00;0.62;3.83;3.27;;;23.60;24.40;;;;;;2265316;61;20701;-68
2022/02/27 01:36:32;0.00;0.00;0.62;0.00;0.00;0.62;3.77;2.97;;;23.60;24.20;;;;;;2265006;61;20393;-67
2022/02/27 01:39:17;0.00;0.00;0.62;0.00;0.00;0.62;4.10;3.30;;;23.60;24.20;;;;;;2265431;61;20361;-71
2022/02/27 01:42:02;0.00;0.00;0.62;0.00;0.00;0.62;5.00;3.40;;;23.50;24.00;;;;;;2265718;61;20357;-67
2022/02/27 01:44:46;0.00;0.00;0.62;0.00;0.00;0.62;4.80;3.80;;;23.50;23.90;;;;;;2265050;61;20759;-66
2022/02/27 01:47:32;0.00;0.00;0.62;0.00;0.00;0.62;5.20;4.20;;;23.50;23.80;;;;;;2265588;61;20404;-67
2022/02/27 01:50:17;0.00;0.00;0.62;0.00;0.00;0.62;5.10;4.07;;;23.50;23.80;;;;;;2265756;61;20598;-67
2022/02/27 01:53:03;0.00;0.00;0.62;0.00;0.00;0.62;4.30;3.90;;;23.40;23.60;;;;;;2265087;61;20381;-66
2022/02/27 01:55:48;0.00;0.00;0.62;0.00;0.00;0.62;4.13;3.73;;;23.40;23.60;;;;;;2265903;61;20357;-67
2022/02/27 01:58:33;0.00;0.00;0.62;0.00;0.00;0.62;4.13;3.70;;;23.40;23.60;;;;;;2265773;61;20364;-67
2022/02/27 02:01:17;0.00;0.00;0.62;0.00;0.00;0.62;5.80;4.47;;;23.40;23.60;;;;;;2265350;61;20712;-71
2022/02/27 02:04:04;0.00;0.00;0.62;0.00;0.00;0.62;3.80;3.40;;;23.30;23.50;;;;;;2265254;61;20436;-63
2022/02/27 02:06:49;0.00;0.00;0.62;0.00;0.00;0.62;5.40;3.73;;;23.30;23.50;;;;;;2265482;61;20357;-68
2022/02/27 02:09:35;0.00;0.00;0.62;0.00;0.00;0.62;6.17;4.67;;;23.30;23.50;;;;;;2265625;61;20417;-65
2022/02/27 02:12:21;0.00;0.00;0.62;0.00;0.00;0.62;4.30;3.63;;;23.20;23.40;;;;;;2265520;61;20387;-64
2022/02/27 02:15:07;0.00;0.00;0.62;0.00;0.00;0.62;5.03;4.43;;;23.20;23.30;;;;;;2265401;61;20599;-64
2022/02/27 02:17:52;0.00;0.00;0.62;0.00;0.00;0.62;4.60;3.83;;;23.20;23.30;;;;;;2265683;61;20733;-62
2022/02/27 02:20:40;0.00;0.00;0.62;0.00;0.00;0.62;4.60;4.17;;;23.20;23.30;;;;;;2265227;61;20585;-67
2022/02/27 02:23:24;0.00;0.00;0.62;0.00;0.00;0.62;4.50;4.00;;;23.10;23.20;;;;;;2265523;61;20505;-66
2022/02/27 02:26:10;0.00;0.00;0.62;0.00;0.00;0.62;5.07;4.57;;;23.10;23.20;;;;;;2265200;61;20365;-68
2022/02/27 02:28:54;0.00;0.00;0.62;0.00;0.00;0.62;4.30;3.37;;;23.10;23.20;;;;;;2265363;61;20433;-66
2022/02/27 02:31:39;0.00;0.00;0.62;0.00;0.00;0.62;6.80;5.00;;;23.00;23.10;;;;;;2265788;61;20349;-67
2022/02/27 02:34:27;0.00;0.00;0.62;0.00;0.00;0.62;5.33;4.83;;;23.00;23.10;;;;;;2265246;61;20377;-69
2022/02/27 02:37:13;0.00;0.00;0.62;0.00;0.00;0.62;5.10;4.57;;;23.00;23.10;;;;;;2265332;61;20389;-69
2022/02/27 02:39:58;0.00;0.00;0.62;0.00;0.00;0.62;4.07;3.60;;;22.90;23.00;;;;;;2265767;61;20350;-66
2022/02/27 02:42:46;0.00;0.00;0.62;0.00;0.00;0.62;6.37;4.30;;;22.90;23.00;;;;;;2265005;61;20365;-68
2022/02/27 02:45:31;0.00;0.00;0.62;0.00;0.00;0.62;4.63;4.10;;;22.90;23.00;;;;;;2265510;61;20701;-68
2022/02/27 02:48:15;0.00;0.00;0.62;0.00;0.00;0.62;7.07;4.90;;;22.80;22.90;;;;;;2265581;61;20371;-69
2022/02/27 02:51:01;0.00;0.00;0.62;0.00;0.00;0.62;5.50;4.43;;;22.80;23.00;;;;;;2264894;61;20392;-68
2022/02/27 02:53:47;0.00;0.00;0.62;0.00;0.00;0.62;6.77;5.33;;;22.80;23.00;;;;;;2265697;61;20380;-67
2022/02/27 02:56:32;0.00;0.00;0.62;0.00;0.00;0.62;5.87;4.90;;;22.70;22.90;;;;;;2265611;61;20361;-67
2022/02/27 02:59:19;0.00;0.00;0.62;0.00;0.00;0.62;5.10;4.20;;;22.70;22.90;;;;;;2265397;61;20357;-67
2022/02/27 03:02:09;0.00;0.00;0.62;0.00;0.00;0.62;5.90;4.47;;;22.70;22.90;;;;;;2265776;61;20368;-68
2022/02/27 03:04:53;0.00;0.00;0.62;0.00;0.00;0.62;5.30;4.77;;;22.70;22.90;;;;;;2265230;61;20555;-66
2022/02/27 03:07:40;0.00;0.00;0.62;0.00;0.00;0.62;5.67;4.90;;;22.60;22.90;;;;;;2265667;61;20441;-66
2022/02/27 03:10:26;0.00;0.00;0.62;0.00;0.00;0.62;5.50;5.00;;;22.60;22.90;;;;;;2265424;61;20800;-67
2022/02/27 03:13:10;0.00;0.00;0.62;0.00;0.00;0.62;6.67;5.07;;;22.50;22.80;;;;;;2265141;61;20454;-66
2022/02/27 03:15:55;0.00;0.00;0.62;0.00;0.00;0.62;6.27;5.67;;;22.50;22.80;;;;;;2265832;61;20361;-68
2022/02/27 03:18:40;0.00;0.00;0.62;0.00;0.00;0.62;6.53;5.83;;;22.50;22.80;;;;;;2265520;61;20380;-67
2022/02/27 03:21:25;0.00;0.00;0.62;0.00;0.00;0.62;6.70;6.00;;;22.40;22.80;;;;;;2265308;61;20356;-68
2022/02/27 03:24:10;0.00;0.00;0.62;0.00;0.00;0.62;5.90;5.27;;;22.40;22.80;;;;;;2265374;61;20396;-68
2022/02/27 03:26:55;0.00;0.00;0.62;0.00;0.00;0.62;6.20;5.00;;;22.40;22.80;;;;;;2265127;61;20620;-66
2022/02/27 03:29:40;0.00;0.00;0.62;0.00;0.00;0.62;7.10;5.40;;;22.30;22.80;;;;;;2265425;61;20372;-68
2022/02/27 03:32:25;0.00;0.00;0.62;0.00;0.00;0.62;5.90;5.23;;;22.30;22.80;;;;;;2265213;61;20740;-65
2022/02/27 03:35:09;0.00;0.00;0.62;0.00;0.00;0.62;6.73;5.53;;;22.30;22.80;;;;;;2265338;61;20372;-67
2022/02/27 03:37:54;0.00;0.00;0.62;0.00;0.00;0.62;7.47;5.60;;;22.20;22.70;;;;;;2265594;61;20800;-71
2022/02/27 03:40:39;0.00;0.00;0.62;0.00;0.00;0.62;6.40;4.83;;;22.20;22.70;;;;;;2265419;61;20376;-68
2022/02/27 03:43:25;0.00;0.00;0.62;0.00;0.00;0.62;7.40;5.20;;;22.20;22.70;;;;;;2265183;61;20457;-64
2022/02/27 03:46:10;0.00;0.00;0.62;0.00;0.00;0.62;6.50;4.83;;;22.20;22.80;;;;;;2265558;61;20515;-66
2022/02/27 03:48:55;0.00;0.00;0.62;0.00;0.00;0.62;5.70;4.97;;;22.10;22.80;;;;;;2265205;61;20399;-65
2022/02/27 03:51:39;0.00;0.00;0.62;0.00;0.00;0.62;6.07;5.23;;;22.10;22.80;;;;;;2265353;61;20349;-64
2022/02/27 03:54:24;0.00;0.00;0.62;0.00;0.00;0.62;6.87;5.83;;;22.00;22.70;;;;;;2265234;61;20391;-63
2022/02/27 03:57:08;0.00;0.00;0.62;0.00;0.00;0.62;6.00;4.60;;;22.00;22.80;;;;;;2265401;61;20585;-64
2022/02/27 03:59:54;0.00;0.00;0.62;0.00;0.00;0.62;6.23;5.67;;;22.00;22.80;;;;;;2265555;61;20753;-66
2022/02/27 04:02:39;0.00;0.00;0.62;0.00;0.00;0.62;6.30;5.00;;;22.00;22.80;;;;;;2265186;61;20609;-64
2022/02/27 04:05:24;0.00;0.00;0.62;0.00;0.00;0.62;5.53;4.93;;;21.90;22.70;;;;;;2265205;61;20643;-69
2022/02/27 04:08:09;0.00;0.00;0.62;0.00;0.00;0.62;6.37;4.60;;;21.90;22.70;;;;;;2265641;61;20713;-64
2022/02/27 04:10:54;0.00;0.00;0.62;0.00;0.00;0.62;6.27;4.93;;;21.90;22.80;;;;;;2265258;61;20392;-67
2022/02/27 04:13:39;0.00;0.00;0.62;0.00;0.00;0.62;6.90;4.87;;;21.90;22.80;;;;;;2265290;61;20427;-64
2022/02/27 04:16:24;0.00;0.00;0.62;0.00;0.00;0.62;6.53;4.90;;;21.90;22.80;;;;;;2265572;61;20361;-66
2022/02/27 04:19:09;0.00;0.00;0.62;0.00;0.00;0.62;7.13;4.77;;;21.80;22.70;;;;;;2265381;61;20360;-65
2022/02/27 04:21:53;0.00;0.00;0.62;0.00;0.00;0.62;7.30;5.67;;;21.80;22.70;;;;;;2265300;61;20399;-68
2022/02/27 04:24:38;0.00;0.00;0.62;0.00;0.00;0.62;6.60;5.47;;;21.80;22.70;;;;;;2265294;61;20412;-67
2022/02/27 04:27:22;0.00;0.00;0.62;0.00;0.00;0.62;6.27;4.73;;;21.70;22.70;;;;;;2265038;61;20659;-67
2022/02/27 04:30:08;0.00;0.00;0.62;0.00;0.00;0.62;4.40;4.00;;;21.70;22.70;;;;;;2265517;61;20377;-69
2022/02/27 04:32:54;0.00;0.00;0.62;0.00;0.00;0.62;5.30;4.40;;;21.70;22.70;;;;;;2265111;61;20772;-67
2022/02/27 04:35:39;0.00;0.00;0.62;0.00;0.00;0.62;6.10;4.40;;;21.60;22.60;;;;;;2264984;61;20373;-67
2022/02/27 04:38:23;0.00;0.00;0.62;0.00;0.00;0.62;4.50;3.63;;;21.70;22.70;;;;;;2265525;61;20384;-65
2022/02/27 04:41:08;0.00;0.00;0.62;0.00;0.00;0.62;5.13;4.33;;;21.60;22.60;;;;;;2265072;61;20564;-65
2022/02/27 04:43:52;0.00;0.00;0.62;0.00;0.00;0.62;6.33;4.63;;;21.60;22.60;;;;;;2265324;61;20389;-68
2022/02/27 04:46:37;0.00;0.00;0.62;0.00;0.00;0.62;5.77;4.53;;;21.60;22.60;;;;;;2265764;61;20728;-67
2022/02/27 04:49:23;0.00;0.00;0.62;0.00;0.00;0.62;5.60;4.07;;;21.50;22.60;;;;;;2265668;61;20431;-61
2022/02/27 04:52:07;0.00;0.00;0.62;0.00;0.00;0.62;5.50;4.27;;;21.50;22.60;;;;;;2266147;61;20581;-69
2022/02/27 04:54:52;0.00;0.00;0.62;0.00;0.00;0.62;5.37;4.13;;;21.50;22.70;;;;;;2265745;61;20361;-63
2022/02/27 04:57:36;0.00;0.00;0.62;0.00;0.00;0.62;4.93;4.00;;;21.50;22.70;;;;;;2265799;61;20642;-65
2022/02/27 05:00:21;0.00;0.00;0.62;0.00;0.00;0.62;5.00;3.83;;;21.40;22.60;;;;;;2266275;61;20387;-69
2022/02/27 05:03:05;0.00;0.00;0.62;0.00;0.00;0.62;5.17;3.57;;;21.40;22.70;;;;;;2265360;61;20423;-64
2022/02/27 05:05:51;0.00;0.00;0.62;0.00;0.00;0.62;5.70;3.70;;;21.40;23.20;;;;;;2266033;61;20357;-68
2022/02/27 05:08:36;0.00;0.00;0.62;0.00;0.00;0.62;4.30;3.63;;;21.30;22.60;;;;;;2265965;61;20404;-66
2022/02/27 05:11:21;0.00;0.00;0.62;0.00;0.00;0.62;4.60;3.70;;;21.30;22.60;;;;;;2265749;61;20393;-71
2022/02/27 05:14:05;0.00;0.00;0.62;0.00;0.00;0.62;4.67;3.60;;;21.30;22.60;;;;;;2266159;61;20392;-63
2022/02/27 05:16:50;0.00;0.00;0.62;0.00;0.00;0.62;5.17;3.67;;;21.30;22.60;;;;;;2265814;61;20361;-69
2022/02/27 05:19:34;0.00;0.00;0.62;0.00;0.00;0.62;4.07;3.30;;;21.30;22.70;;;;;;2265695;61;20357;-68
2022/02/27 05:22:20;0.00;0.00;0.62;0.00;0.00;0.62;6.97;4.30;;;21.20;22.60;;;;;;2265980;61;20568;-67
2022/02/27 05:25:05;0.00;0.00;0.62;0.00;0.00;0.62;5.20;3.53;;;21.20;22.60;;;;;;2265805;61;20368;-68
2022/02/27 05:27:53;0.00;0.00;0.62;0.00;0.00;0.62;6.40;4.10;;;21.20;22.60;;;;;;2265900;61;20881;-63
2022/02/27 05:30:37;0.00;0.00;0.62;0.00;0.00;0.62;4.93;3.83;;;21.20;22.60;;;;;;2265989;61;20432;-64
2022/02/27 05:33:22;0.00;0.00;0.62;0.00;0.00;0.62;6.33;4.20;;;21.20;22.70;;;;;;2265763;61;20753;-67
2022/02/27 05:36:07;0.00;0.00;0.62;0.00;0.00;0.62;6.00;4.07;;;21.20;22.70;;;;;;2265984;61;20408;-67
2022/02/27 05:38:53;0.00;0.00;0.62;0.00;0.00;0.62;6.07;4.20;;;21.10;22.60;;;;;;2265594;61;20579;-67
2022/02/27 05:41:37;0.00;0.00;0.62;0.00;0.00;0.62;7.03;3.60;;;21.10;23.20;;;;;;2265489;61;20585;-64
2022/02/27 05:44:22;0.00;0.00;0.62;0.00;0.00;0.62;4.57;3.90;;;21.10;22.70;;;;;;2266302;61;20449;-66
2022/02/27 05:47:07;0.00;0.00;0.62;0.00;0.00;0.62;3.53;2.80;;;21.00;22.60;;;;;;2265580;61;20780;-69
2022/02/27 05:49:51;0.00;0.00;0.62;0.00;0.00;0.62;5.63;3.70;;;21.10;22.70;;;;;;2265863;61;20476;-66
2022/02/27 05:52:36;0.00;0.00;0.62;0.00;0.00;0.62;4.97;3.90;;;21.00;22.60;;;;;;2265934;61;20357;-65
2022/02/27 05:55:22;0.00;0.00;0.62;0.00;0.00;0.62;6.20;4.30;;;21.00;22.70;;;;;;2265580;61;20403;-69
2022/02/27 05:58:06;0.00;0.00;0.62;0.00;0.00;0.62;4.37;3.33;;;21.00;22.70;;;;;;2265660;61;20365;-66
2022/02/27 06:00:51;0.00;0.00;0.62;0.00;0.00;0.62;4.67;2.80;;;21.00;22.70;;;;;;2265681;61;20344;-68
2022/02/27 06:03:35;0.00;0.00;0.62;0.00;0.00;0.62;4.17;3.23;;;21.00;22.70;;;;;;2265262;61;20377;-66
2022/02/27 06:06:20;0.00;0.00;0.62;0.00;0.00;0.62;5.80;4.00;;;20.90;22.60;;;;;;2266081;61;20350;-67
2022/02/27 06:09:04;0.00;0.00;0.62;0.00;0.00;0.62;7.53;4.17;;;20.90;22.60;;;;;;2265652;61;20375;-69
2022/02/27 06:11:51;0.00;0.00;0.62;0.00;0.00;0.62;4.10;3.40;;;20.90;22.60;;;;;;2265397;61;20401;-67
2022/02/27 06:14:35;0.00;0.00;0.62;0.00;0.00;0.62;7.50;3.73;;;20.90;22.60;;;;;;2265797;61;20385;-64
2022/02/27 06:17:20;0.00;0.00;0.62;0.00;0.00;0.62;4.10;3.70;;;20.90;22.60;;;;;;2265389;61;20428;-65
2022/02/27 06:20:07;0.00;0.00;0.62;0.00;0.00;0.62;6.10;4.13;;;20.80;22.50;;;;;;2265826;61;20357;-65
2022/02/27 06:22:51;0.00;0.00;0.62;0.00;0.00;0.62;6.77;4.13;;;20.80;22.50;;;;;;2265501;61;20392;-63
2022/02/27 06:25:36;0.00;0.00;0.62;0.00;0.00;0.62;5.90;3.90;;;20.80;22.50;;;;;;2265400;61;20419;-66
2022/02/27 06:28:22;0.00;0.00;0.62;0.00;0.00;0.62;5.07;3.67;;;20.80;22.50;;;;;;2265953;61;20400;-70
2022/02/27 06:31:06;0.00;0.00;0.62;0.00;0.00;0.62;5.43;3.77;;;20.80;22.50;;;;;;2265567;61;20711;-68
2022/02/27 06:33:51;0.00;0.00;0.62;0.00;0.00;0.62;5.30;3.43;;;20.80;22.60;;;;;;2265399;61;20595;-68
2022/02/27 06:36:36;0.00;0.00;0.62;0.00;0.00;0.62;4.73;3.40;;;20.70;22.50;;;;;;2265945;61;20369;-64
2022/02/27 06:39:20;0.00;0.00;0.62;0.00;0.00;0.62;5.23;3.77;;;20.70;22.50;;;;;;2265320;61;20518;-65
2022/02/27 06:42:05;0.00;0.00;0.62;0.00;0.00;0.62;4.33;3.20;;;20.70;22.50;;;;;;2265524;61;20710;-70
2022/02/27 06:44:51;0.00;0.00;0.62;0.00;0.00;0.62;4.30;3.83;;;20.70;22.50;;;;;;2265605;61;20409;-68
2022/02/27 06:47:36;0.00;0.00;0.62;0.00;0.00;0.62;5.43;3.67;;;20.70;22.50;;;;;;2265431;61;20438;-63
2022/02/27 06:50:20;0.00;0.00;0.62;0.00;0.00;0.62;6.53;3.50;;;20.70;22.50;;;;;;2265807;61;20389;-68
2022/02/27 06:53:05;0.00;0.00;0.62;0.00;0.00;0.62;4.67;3.43;;;20.60;22.50;;;;;;2265573;61;20384;-65
2022/02/27 06:55:50;0.00;0.00;0.62;0.00;0.00;0.62;5.20;3.60;;;20.60;22.50;;;;;;2265397;61;20384;-68
2022/02/27 06:58:34;0.00;0.00;0.62;0.00;0.00;0.62;4.77;3.50;;;20.60;22.50;;;;;;2265415;61;20476;-67
2022/02/27 07:01:20;0.00;0.00;0.62;0.00;0.00;0.62;3.97;3.50;;;20.60;22.50;;;;;;2265279;61;20407;-67
2022/02/27 07:04:05;0.00;0.00;0.62;0.00;0.00;0.62;4.10;3.40;;;20.60;22.50;;;;;;2265367;61;20388;-64
2022/02/27 07:06:50;0.00;0.00;0.62;0.00;0.00;0.62;5.93;3.63;;;20.60;22.50;;;;;;2265637;61;20361;-64
2022/02/27 07:09:34;0.00;0.00;0.62;0.00;0.00;0.62;6.13;4.20;;;20.60;22.60;;;;;;2265450;61;20353;-64
2022/02/27 07:12:19;0.00;0.00;0.62;0.00;0.00;0.62;4.70;3.93;;;20.60;22.60;;;;;;2265486;61;20725;-67
2022/02/27 07:15:05;0.00;0.00;0.62;0.00;0.00;0.62;6.60;3.70;;;20.50;22.50;;;;;;2265343;61;20357;-68
2022/02/27 07:17:51;0.00;0.00;0.62;0.00;0.00;0.62;5.43;3.77;;;20.50;22.60;;;;;;2265123;61;20365;-68
2022/02/27 07:20:35;0.00;0.00;0.62;0.00;0.00;0.62;6.20;3.57;;;20.50;22.60;;;;;;2265907;61;20488;-65
2022/02/27 07:23:20;0.00;0.00;0.62;0.00;0.00;0.62;4.80;3.63;;;20.50;22.60;;;;;;2264955;61;20799;-68
2022/02/27 07:26:04;0.00;0.00;0.62;0.00;0.00;0.62;5.10;3.20;;;20.50;22.60;;;;;;2265567;61;20353;-67
2022/02/27 07:28:49;0.00;0.00;0.62;0.00;0.00;0.62;4.27;3.07;;;20.50;22.60;;;;;;2265879;61;20353;-62
2022/02/27 07:31:33;0.00;0.00;0.62;0.00;0.00;0.62;5.40;3.73;;;20.50;22.60;;;;;;2264609;61;20396;-62
2022/02/27 07:34:19;0.00;0.00;0.62;0.00;0.00;0.62;6.87;3.97;;;20.40;22.60;;;;;;2265298;61;20478;-64
2022/02/27 07:37:04;0.00;0.00;0.62;0.00;0.00;0.62;4.90;3.20;;;20.40;22.60;;;;;;2265368;61;20360;-65
2022/02/27 07:39:48;0.00;0.00;0.62;0.00;0.00;0.62;5.23;3.87;;;20.40;22.70;;;;;;2265148;61;20357;-62
2022/02/27 07:42:34;0.00;0.00;0.62;0.00;0.00;0.62;4.80;3.37;;;20.40;22.70;;;;;;2265654;61;20437;-64
2022/02/27 07:45:20;0.00;0.00;0.62;0.00;0.00;0.62;3.40;2.93;;;20.40;22.70;;;;;;2265392;61;20392;-64
2022/02/27 07:48:05;0.00;0.00;0.62;0.00;0.00;0.62;4.10;3.10;;;20.40;22.80;;;;;;2265087;61;20346;-62
2022/02/27 07:50:51;0.00;0.00;0.62;0.00;0.00;0.62;6.20;3.80;;;20.40;22.80;;;;;;2265655;61;20389;-63
2022/02/27 07:53:35;0.00;0.00;0.62;0.00;0.00;0.62;4.60;3.13;;;20.40;22.80;;;;;;2265052;61;20455;-63
2022/02/27 07:56:20;0.00;0.00;0.62;0.00;0.00;0.62;4.60;3.30;;;20.40;22.80;;;;;;2265488;61;20361;-64
2022/02/27 07:59:05;0.00;0.00;0.62;0.00;0.00;0.62;4.80;3.87;;;20.40;22.80;;;;;;2265252;61;20650;-63
2022/02/27 08:01:50;0.00;0.00;0.62;0.00;0.00;0.62;5.23;3.60;;;20.40;22.80;;;;;;2264864;61;20372;-64
2022/02/27 08:04:34;0.00;0.00;0.62;0.00;0.00;0.62;4.30;3.40;;;20.30;22.70;;;;;;2265515;61;20481;-64
2022/02/27 08:07:20;0.00;0.00;0.62;0.00;0.00;0.62;5.67;3.40;;;20.30;23.20;;;;;;2265357;61;20483;-63
2022/02/27 08:10:06;0.00;0.00;0.62;0.00;0.00;0.62;6.70;4.20;;;20.30;22.70;;;;;;2265112;61;20654;-63
2022/02/27 08:12:50;0.00;0.00;0.62;0.00;0.00;0.62;5.43;3.60;;;20.30;22.80;;;;;;2265207;61;20596;-63
2022/02/27 08:15:34;0.00;0.00;0.62;0.00;0.00;0.62;4.10;3.47;;;20.30;22.80;;;;;;2264966;61;20360;-62
2022/02/27 08:18:19;0.00;0.00;0.62;0.00;0.00;0.62;4.83;3.47;;;20.30;22.80;;;;;;2265274;61;20365;-63
2022/02/27 08:21:04;0.00;0.00;0.62;0.00;0.00;0.62;5.73;3.40;;;20.30;22.80;;;;;;2265894;61;20395;-64
2022/02/27 08:23:51;0.00;0.00;0.62;0.00;0.00;0.62;5.10;3.87;;;20.30;22.80;;;;;;2265970;61;20500;-63
2022/02/27 08:26:35;0.00;0.00;0.62;0.00;0.00;0.62;5.10;3.03;;;20.30;22.80;;;;;;2266373;61;20365;-64
2022/02/27 08:29:20;0.00;0.00;0.62;0.00;0.00;0.62;4.20;3.77;;;20.30;22.80;;;;;;2266056;61;20414;-64
2022/02/27 08:32:06;0.00;0.00;0.62;0.00;0.00;0.62;5.60;3.63;;;20.30;22.80;;;;;;2265541;61;20741;-64
2022/02/27 08:34:50;0.00;0.00;0.62;0.00;0.00;0.62;4.80;4.30;;;20.30;22.70;;;;;;2266214;61;20764;-64
2022/02/27 08:37:35;0.00;0.00;0.62;0.00;0.00;0.62;5.10;3.50;;;20.30;22.70;;;;;;2265729;61;20389;-65
2022/02/27 08:40:21;0.00;0.00;0.62;0.00;0.00;0.62;6.43;3.37;;;20.30;22.80;;;;;;2265980;61;20357;-65
2022/02/27 08:43:06;0.00;0.00;0.62;0.00;0.00;0.62;6.53;4.07;;;20.30;22.80;;;;;;2265822;61;20408;-65
2022/02/27 08:45:51;0.00;0.00;0.62;0.00;0.00;0.62;4.90;3.00;;;20.30;22.90;;;;;;2265617;61;20381;-63
2022/02/27 08:48:35;0.00;0.00;0.62;0.00;0.00;0.62;3.80;2.77;;;20.30;22.90;;;;;;2266199;61;20736;-64
2022/02/27 08:51:20;0.00;0.00;0.62;0.00;0.00;0.62;4.80;2.73;;;20.30;22.90;;;;;;2265761;61;20408;-64
2022/02/27 08:54:04;0.00;0.00;0.62;0.00;0.00;0.62;4.70;2.87;;;20.30;23.00;;;;;;2265594;61;20373;-64
2022/02/27 08:56:50;0.00;0.00;0.62;0.00;0.00;0.62;3.30;2.40;;;20.30;22.90;;;;;;2266252;61;20392;-63
2022/02/27 08:59:35;0.00;0.00;0.62;0.00;0.00;0.62;4.20;3.07;;;20.40;23.10;;;;;;2265921;61;20725;-66
2022/02/27 09:02:20;0.00;0.00;0.62;0.00;0.00;0.62;3.50;2.90;;;20.40;23.10;;;;;;2265693;61;20467;-64
2022/02/27 09:05:06;0.00;0.00;0.62;0.00;0.00;0.62;3.67;2.50;;;20.40;23.10;;;;;;2266229;61;20689;-65
2022/02/27 09:07:50;0.00;0.00;0.62;0.00;0.00;0.62;3.07;2.70;;;20.40;23.20;;;;;;2265889;61;20364;-65
2022/02/27 09:10:35;0.00;0.00;0.62;0.00;0.00;0.62;3.03;2.43;;;20.40;23.20;;;;;;2266108;61;20380;-63
2022/02/27 09:13:21;0.00;0.00;0.62;0.00;0.00;0.62;3.20;2.80;;;20.40;23.20;;;;;;2265628;61;20380;-63
2022/02/27 09:16:06;0.00;0.00;0.62;0.00;0.00;0.62;5.40;2.50;;;20.50;23.30;;;;;;2265443;61;20361;-65
2022/02/27 09:18:50;0.00;0.00;0.62;0.00;0.00;0.62;3.50;2.70;;;20.50;23.30;;;;;;2266216;61;20425;-65
2022/02/27 09:21:35;0.00;0.00;0.62;0.00;0.00;0.62;3.60;2.33;;;20.50;23.40;;;;;;2265658;61;20400;-65
2022/02/27 09:24:20;0.00;0.00;0.62;0.00;0.00;0.62;3.00;2.70;;;20.50;23.40;;;;;;2265767;61;20729;-64
2022/02/27 09:27:05;0.00;0.00;0.62;0.00;0.00;0.62;4.00;2.30;;;20.60;23.50;;;;;;2266108;61;20439;-64
2022/02/27 09:29:53;0.00;0.00;0.62;0.00;0.00;0.62;2.87;2.57;;;20.60;23.50;;;;;;2265226;61;20626;-64
2022/02/27 09:32:38;0.00;0.00;0.62;0.00;0.00;0.62;3.60;2.03;;;20.60;23.50;;;;;;2265783;61;20365;-66
2022/02/27 09:35:28;0.00;0.00;0.62;0.00;0.00;0.62;3.50;2.37;;;20.60;23.50;;;;;;2265740;61;20361;-65
2022/02/27 09:38:12;0.00;0.00;0.62;0.00;0.00;0.62;3.90;2.70;;;20.60;23.50;;;;;;2265567;61;20400;-67
2022/02/27 09:40:58;0.00;0.00;0.62;0.00;0.00;0.62;4.10;2.20;;;20.70;23.60;;;;;;2266145;61;20736;-65
2022/02/27 09:43:50;0.00;0.00;0.62;0.00;0.00;0.62;2.83;2.03;;;20.70;23.60;;;;;;2265671;61;20373;-65
2022/02/27 09:46:37;0.00;0.00;0.62;0.00;0.00;0.62;4.00;2.30;;;20.70;23.60;;;;;;2521655;53;20358;-67
2022/02/27 09:49:21;0.00;0.00;0.62;0.00;0.00;0.62;3.10;2.03;;;20.80;23.70;;;;;;2262115;61;20584;-64
2022/02/27 09:52:06;0.00;0.00;0.62;0.00;0.00;0.62;2.73;2.37;;;20.80;23.70;;;;;;2261546;61;20358;-64
2022/02/27 09:54:51;0.00;0.00;0.62;0.00;0.00;0.62;2.87;2.13;;;20.80;23.70;;;;;;2261605;61;20421;-65
2022/02/27 09:57:35;0.00;0.00;0.62;0.00;0.00;0.62;2.60;2.00;;;20.80;23.70;;;;;;2261684;61;20741;-64
2022/02/27 10:00:20;0.00;0.00;0.62;0.00;0.00;0.62;2.57;2.30;;;20.90;23.80;;;;;;2261467;61;20358;-65
2022/02/27 10:03:09;0.00;0.00;0.62;0.00;0.00;0.62;2.10;1.90;;;20.90;23.80;;;;;;2261811;61;20421;-63
2022/02/27 10:06:00;0.00;0.00;0.62;0.00;0.00;0.62;3.73;2.60;;;21.00;23.90;;;;;;2261570;61;20369;-63
2022/02/27 10:08:48;0.00;0.00;0.62;0.00;0.00;0.62;2.67;1.87;;;21.00;23.90;;;;;;2261645;61;20370;-65
2022/02/27 10:11:35;0.00;0.00;0.62;0.00;0.00;0.62;2.87;1.93;;;21.00;23.90;;;;;;2261719;61;20417;-67
2022/02/27 10:14:25;0.00;0.00;0.62;0.00;0.00;0.62;3.10;2.20;;;21.10;23.90;;;;;;2261540;61;20446;-67
2022/02/27 10:17:10;0.00;0.00;0.62;0.00;0.00;0.62;2.47;1.60;;;21.10;23.90;;;;;;2261762;61;20404;-66
2022/02/27 10:19:56;0.00;0.00;0.62;0.00;0.00;0.62;2.53;1.67;;;21.10;24.00;;;;;;2261533;61;20365;-65
2022/02/27 10:22:43;0.00;0.00;0.62;0.00;0.00;0.62;2.40;1.80;;;21.20;24.00;;;;;;2261230;61;20642;-64
2022/02/27 10:25:29;0.00;0.00;0.62;0.00;0.00;0.62;3.03;2.13;;;21.20;24.00;;;;;;2261851;61;20365;-66
2022/02/27 10:28:13;0.00;0.00;0.62;0.00;0.00;0.62;1.90;1.60;;;21.30;24.00;;;;;;2261527;61;20353;-65
2022/02/27 10:31:08;0.00;0.00;0.62;0.00;0.00;0.62;3.13;2.00;;;21.30;24.10;;;;;;2261516;61;20397;-65
2022/02/27 10:33:56;0.00;0.00;0.62;0.00;0.00;0.62;2.40;1.97;;;21.30;24.10;;;;;;2261833;61;20377;-66
2022/02/27 10:36:58;0.00;0.00;0.62;0.00;0.00;0.62;3.43;2.23;;;21.30;24.00;;;;;;2261758;61;20397;-66
2022/02/27 10:39:46;0.00;0.00;0.62;0.00;0.00;0.62;3.23;1.83;;;21.40;24.10;;;;;;2261789;61;20365;-67
2022/02/27 10:42:32;0.00;0.00;0.62;0.00;0.00;0.62;2.00;1.80;;;21.40;24.10;;;;;;2261289;61;20409;-66
2022/02/27 10:45:19;0.00;0.00;0.62;0.00;0.00;0.62;2.30;1.70;;;21.50;24.10;;;;;;2263056;61;20361;-65
2022/02/27 10:48:07;0.00;0.00;0.62;0.00;0.00;0.62;2.93;1.70;;;21.60;24.20;;;;;;2265904;61;20411;-65
2022/02/27 10:51:02;0.00;0.00;0.62;0.00;0.00;0.62;2.43;1.60;;;21.60;24.20;;;;;;2265203;61;20432;-66